sensor_id;sensor_type;location;lat;lon;timestamp;temperature;humidity
51867;DHT22;52862;52.504;13.480;2022-07-23T00:00:16;20.10;99.90
51867;DHT22;52862;52.504;13.480;2022-07-23T00:02:43;20.10;99.90
51867;DHT22;52862;52.504;13.480;2022-07-23T00:05:10;20.10;99.90
51867;DHT22;52862;52.504;13.480;2022-07-23T00:07:38;20.00;99.90
51867;DHT22;52862;52.504;13.480;2022-07-23T00:10:05;20.00;99.90
51867;DHT22;52862;52.504;13.480;2022-07-23T00:12:33;20.00;99.90
51867;DHT22;52862;52.504;13.480;2022-07-23T00:15:00;20.00;99.90
51867;DHT22;52862;52.504;13.480;2022-07-23T00:17:28;19.90;99.90
51867;DHT22;52862;52.504;13.480;2022-07-23T00:19:55;19.90;99.90
51867;DHT22;52862;52.504;13.480;2022-07-23T00:22:22;19.90;99.90
51867;DHT22;52862;52.504;13.480;2022-07-23T00:24:48;19.90;99.90
51867;DHT22;52862;52.504;13.480;2022-07-23T00:27:36;19.80;99.90
51867;DHT22;52862;52.504;13.480;2022-07-23T00:30:03;19.70;99.90
51867;DHT22;52862;52.504;13.480;2022-07-23T00:32:30;19.70;99.90
51867;DHT22;52862;52.504;13.480;2022-07-23T00:35:20;19.70;99.90
51867;DHT22;52862;52.504;13.480;2022-07-23T00:37:47;19.70;99.90
51867;DHT22;52862;52.504;13.480;2022-07-23T00:40:14;19.80;99.90
51867;DHT22;52862;52.504;13.480;2022-07-23T00:42:42;19.90;99.90
51867;DHT22;52862;52.504;13.480;2022-07-23T00:45:09;19.90;99.90
51867;DHT22;52862;52.504;13.480;2022-07-23T00:47:36;19.80;99.90
51867;DHT22;52862;52.504;13.480;2022-07-23T00:50:04;19.80;99.90
51867;DHT22;52862;52.504;13.480;2022-07-23T00:52:32;19.70;99.90
51867;DHT22;52862;52.504;13.480;2022-07-23T00:54:59;19.60;99.90
51867;DHT22;52862;52.504;13.480;2022-07-23T00:57:26;19.50;99.90
51867;DHT22;52862;52.504;13.480;2022-07-23T00:59:55;19.40;99.90
51867;DHT22;52862;52.504;13.480;2022-07-23T01:02:24;19.40;99.90
51867;DHT22;52862;52.504;13.480;2022-07-23T01:04:50;19.40;99.90
51867;DHT22;52862;52.504;13.480;2022-07-23T01:07:18;19.50;99.90
51867;DHT22;52862;52.504;13.480;2022-07-23T01:09:46;19.50;99.90
51867;DHT22;52862;52.504;13.480;2022-07-23T01:12:13;19.50;99.90
51867;DHT22;52862;52.504;13.480;2022-07-23T01:14:39;19.40;99.90
51867;DHT22;52862;52.504;13.480;2022-07-23T01:17:07;19.40;99.90
51867;DHT22;52862;52.504;13.480;2022-07-23T01:19:33;19.40;99.90
51867;DHT22;52862;52.504;13.480;2022-07-23T01:22:02;19.30;99.90
51867;DHT22;52862;52.504;13.480;2022-07-23T01:24:30;19.20;99.90
51867;DHT22;52862;52.504;13.480;2022-07-23T01:26:56;19.20;99.90
51867;DHT22;52862;52.504;13.480;2022-07-23T01:29:23;19.20;99.90
51867;DHT22;52862;52.504;13.480;2022-07-23T01:31:50;19.10;99.90
51867;DHT22;52862;52.504;13.480;2022-07-23T01:34:17;19.10;99.90
51867;DHT22;52862;52.504;13.480;2022-07-23T01:36:44;19.20;99.90
51867;DHT22;52862;52.504;13.480;2022-07-23T01:39:11;19.10;99.90
51867;DHT22;52862;52.504;13.480;2022-07-23T01:41:38;19.20;99.90
51867;DHT22;52862;52.504;13.480;2022-07-23T01:44:05;19.20;99.90
51867;DHT22;52862;52.504;13.480;2022-07-23T01:46:32;19.20;99.90
51867;DHT22;52862;52.504;13.480;2022-07-23T01:48:59;19.10;99.90
51867;DHT22;52862;52.504;13.480;2022-07-23T01:51:26;19.00;99.90
51867;DHT22;52862;52.504;13.480;2022-07-23T01:53:53;19.10;99.90
51867;DHT22;52862;52.504;13.480;2022-07-23T01:56:20;19.10;99.90
51867;DHT22;52862;52.504;13.480;2022-07-23T01:58:48;19.20;99.90
51867;DHT22;52862;52.504;13.480;2022-07-23T02:01:15;19.20;99.90
51867;DHT22;52862;52.504;13.480;2022-07-23T02:03:42;19.30;99.90
51867;DHT22;52862;52.504;13.480;2022-07-23T02:06:09;19.30;99.90
51867;DHT22;52862;52.504;13.480;2022-07-23T02:08:36;19.30;99.90
51867;DHT22;52862;52.504;13.480;2022-07-23T02:11:03;19.30;99.90
51867;DHT22;52862;52.504;13.480;2022-07-23T02:13:29;19.30;99.90
51867;DHT22;52862;52.504;13.480;2022-07-23T02:16:01;19.10;99.90
51867;DHT22;52862;52.504;13.480;2022-07-23T02:18:28;19.10;99.90
51867;DHT22;52862;52.504;13.480;2022-07-23T02:20:54;19.10;99.90
51867;DHT22;52862;52.504;13.480;2022-07-23T02:23:21;19.10;99.90
51867;DHT22;52862;52.504;13.480;2022-07-23T02:25:48;19.10;99.90
51867;DHT22;52862;52.504;13.480;2022-07-23T02:28:15;19.10;99.90
51867;DHT22;52862;52.504;13.480;2022-07-23T02:30:41;19.20;99.90
51867;DHT22;52862;52.504;13.480;2022-07-23T02:33:09;19.10;99.90
51867;DHT22;52862;52.504;13.480;2022-07-23T02:35:36;19.10;99.90
51867;DHT22;52862;52.504;13.480;2022-07-23T02:38:03;19.10;99.90
51867;DHT22;52862;52.504;13.480;2022-07-23T02:40:29;18.90;99.90
51867;DHT22;52862;52.504;13.480;2022-07-23T02:42:56;18.80;99.90
51867;DHT22;52862;52.504;13.480;2022-07-23T02:45:23;18.60;99.90
51867;DHT22;52862;52.504;13.480;2022-07-23T02:47:50;18.70;99.90
51867;DHT22;52862;52.504;13.480;2022-07-23T02:50:18;18.40;99.90
51867;DHT22;52862;52.504;13.480;2022-07-23T02:52:44;18.50;99.90
51867;DHT22;52862;52.504;13.480;2022-07-23T02:55:11;18.40;99.90
51867;DHT22;52862;52.504;13.480;2022-07-23T02:57:38;18.50;99.90
51867;DHT22;52862;52.504;13.480;2022-07-23T03:00:06;18.40;99.90
51867;DHT22;52862;52.504;13.480;2022-07-23T03:02:34;18.40;99.90
51867;DHT22;52862;52.504;13.480;2022-07-23T03:05:01;18.50;99.90
51867;DHT22;52862;52.504;13.480;2022-07-23T03:07:28;18.50;99.90
51867;DHT22;52862;52.504;13.480;2022-07-23T03:09:55;18.40;99.90
51867;DHT22;52862;52.504;13.480;2022-07-23T03:12:22;18.30;99.90
51867;DHT22;52862;52.504;13.480;2022-07-23T03:14:49;18.30;99.90
51867;DHT22;52862;52.504;13.480;2022-07-23T03:17:18;18.30;99.90
51867;DHT22;52862;52.504;13.480;2022-07-23T03:19:47;18.40;99.90
51867;DHT22;52862;52.504;13.480;2022-07-23T03:22:14;18.20;99.90
51867;DHT22;52862;52.504;13.480;2022-07-23T03:24:42;18.20;99.90
51867;DHT22;52862;52.504;13.480;2022-07-23T03:27:21;18.30;99.90
51867;DHT22;52862;52.504;13.480;2022-07-23T03:29:48;18.30;99.90
51867;DHT22;52862;52.504;13.480;2022-07-23T03:32:14;18.40;99.90
51867;DHT22;52862;52.504;13.480;2022-07-23T03:34:41;18.40;99.90
51867;DHT22;52862;52.504;13.480;2022-07-23T03:37:08;18.30;99.90
51867;DHT22;52862;52.504;13.480;2022-07-23T03:39:35;18.10;99.90
51867;DHT22;52862;52.504;13.480;2022-07-23T03:42:03;18.30;99.90
51867;DHT22;52862;52.504;13.480;2022-07-23T03:44:29;18.20;99.90
51867;DHT22;52862;52.504;13.480;2022-07-23T03:46:56;17.90;99.90
51867;DHT22;52862;52.504;13.480;2022-07-23T03:49:23;18.10;99.90
51867;DHT22;52862;52.504;13.480;2022-07-23T03:51:51;17.70;99.90
51867;DHT22;52862;52.504;13.480;2022-07-23T03:54:18;17.70;99.90
51867;DHT22;52862;52.504;13.480;2022-07-23T03:56:44;17.70;99.90
51867;DHT22;52862;52.504;13.480;2022-07-23T03:59:12;17.60;99.90
51867;DHT22;52862;52.504;13.480;2022-07-23T04:01:39;17.60;99.90
51867;DHT22;52862;52.504;13.480;2022-07-23T04:04:05;17.60;99.90
51867;DHT22;52862;52.504;13.480;2022-07-23T04:06:34;17.40;99.90
51867;DHT22;52862;52.504;13.480;2022-07-23T04:09:01;17.40;99.90
51867;DHT22;52862;52.504;13.480;2022-07-23T04:11:28;17.60;99.90
51867;DHT22;52862;52.504;13.480;2022-07-23T04:13:55;17.70;99.90
51867;DHT22;52862;52.504;13.480;2022-07-23T04:16:23;17.80;99.90
51867;DHT22;52862;52.504;13.480;2022-07-23T04:18:50;17.90;99.90
51867;DHT22;52862;52.504;13.480;2022-07-23T04:21:16;17.90;99.90
51867;DHT22;52862;52.504;13.480;2022-07-23T04:23:43;18.00;99.90
51867;DHT22;52862;52.504;13.480;2022-07-23T04:26:10;18.00;99.90
51867;DHT22;52862;52.504;13.480;2022-07-23T04:28:43;17.90;99.90
51867;DHT22;52862;52.504;13.480;2022-07-23T04:31:10;18.00;99.90
51867;DHT22;52862;52.504;13.480;2022-07-23T04:33:38;18.00;99.90
51867;DHT22;52862;52.504;13.480;2022-07-23T04:36:05;17.90;99.90
51867;DHT22;52862;52.504;13.480;2022-07-23T04:38:32;17.80;99.90
51867;DHT22;52862;52.504;13.480;2022-07-23T04:40:59;17.90;99.90
51867;DHT22;52862;52.504;13.480;2022-07-23T04:43:25;18.10;99.90
51867;DHT22;52862;52.504;13.480;2022-07-23T04:45:53;18.10;99.90
51867;DHT22;52862;52.504;13.480;2022-07-23T04:48:19;17.80;99.90
51867;DHT22;52862;52.504;13.480;2022-07-23T04:50:47;17.70;99.90
51867;DHT22;52862;52.504;13.480;2022-07-23T04:53:14;18.40;99.90
51867;DHT22;52862;52.504;13.480;2022-07-23T04:55:41;17.00;99.90
51867;DHT22;52862;52.504;13.480;2022-07-23T04:58:07;17.10;99.90
51867;DHT22;52862;52.504;13.480;2022-07-23T05:00:34;17.20;99.90
51867;DHT22;52862;52.504;13.480;2022-07-23T05:03:01;17.20;99.90
51867;DHT22;52862;52.504;13.480;2022-07-23T05:05:28;17.10;99.90
51867;DHT22;52862;52.504;13.480;2022-07-23T05:07:55;17.10;99.90
51867;DHT22;52862;52.504;13.480;2022-07-23T05:10:22;17.10;99.90
51867;DHT22;52862;52.504;13.480;2022-07-23T05:12:52;17.20;99.90
51867;DHT22;52862;52.504;13.480;2022-07-23T05:15:19;17.20;99.90
51867;DHT22;52862;52.504;13.480;2022-07-23T05:17:46;17.00;99.90
51867;DHT22;52862;52.504;13.480;2022-07-23T05:20:13;16.80;99.90
51867;DHT22;52862;52.504;13.480;2022-07-23T05:22:40;16.80;99.90
51867;DHT22;52862;52.504;13.480;2022-07-23T05:25:08;16.90;99.90
51867;DHT22;52862;52.504;13.480;2022-07-23T05:27:35;17.10;99.90
51867;DHT22;52862;52.504;13.480;2022-07-23T05:30:02;17.10;99.90
51867;DHT22;52862;52.504;13.480;2022-07-23T05:32:31;17.10;99.90
51867;DHT22;52862;52.504;13.480;2022-07-23T05:34:58;17.10;99.90
51867;DHT22;52862;52.504;13.480;2022-07-23T05:37:25;17.10;99.90
51867;DHT22;52862;52.504;13.480;2022-07-23T05:39:52;17.20;99.90
51867;DHT22;52862;52.504;13.480;2022-07-23T05:42:19;17.20;99.90
51867;DHT22;52862;52.504;13.480;2022-07-23T05:44:46;17.20;99.90
51867;DHT22;52862;52.504;13.480;2022-07-23T05:47:13;17.20;99.90
51867;DHT22;52862;52.504;13.480;2022-07-23T05:49:40;17.10;99.90
51867;DHT22;52862;52.504;13.480;2022-07-23T05:52:07;17.30;99.90
51867;DHT22;52862;52.504;13.480;2022-07-23T05:54:34;17.20;99.90
51867;DHT22;52862;52.504;13.480;2022-07-23T05:57:01;17.20;99.90
51867;DHT22;52862;52.504;13.480;2022-07-23T05:59:29;17.10;99.90
51867;DHT22;52862;52.504;13.480;2022-07-23T06:01:56;17.00;99.90
51867;DHT22;52862;52.504;13.480;2022-07-23T06:04:23;17.00;99.90
51867;DHT22;52862;52.504;13.480;2022-07-23T06:06:50;17.00;99.90
51867;DHT22;52862;52.504;13.480;2022-07-23T06:09:16;17.10;99.90
51867;DHT22;52862;52.504;13.480;2022-07-23T06:11:44;17.10;99.90
51867;DHT22;52862;52.504;13.480;2022-07-23T06:14:11;17.00;99.90
51867;DHT22;52862;52.504;13.480;2022-07-23T06:16:38;17.10;99.90
51867;DHT22;52862;52.504;13.480;2022-07-23T06:19:05;17.10;99.90
51867;DHT22;52862;52.504;13.480;2022-07-23T06:21:32;17.10;99.90
51867;DHT22;52862;52.504;13.480;2022-07-23T06:24:12;17.00;99.90
51867;DHT22;52862;52.504;13.480;2022-07-23T06:26:39;17.00;99.90
51867;DHT22;52862;52.504;13.480;2022-07-23T06:29:06;17.00;99.90
51867;DHT22;52862;52.504;13.480;2022-07-23T06:31:33;17.00;99.90
51867;DHT22;52862;52.504;13.480;2022-07-23T06:34:01;16.90;99.90
51867;DHT22;52862;52.504;13.480;2022-07-23T06:36:28;16.90;99.90
51867;DHT22;52862;52.504;13.480;2022-07-23T06:38:55;16.90;99.90
51867;DHT22;52862;52.504;13.480;2022-07-23T06:41:21;17.00;99.90
51867;DHT22;52862;52.504;13.480;2022-07-23T06:43:49;17.20;99.90
51867;DHT22;52862;52.504;13.480;2022-07-23T06:46:16;17.30;99.90
51867;DHT22;52862;52.504;13.480;2022-07-23T06:48:43;17.30;99.90
51867;DHT22;52862;52.504;13.480;2022-07-23T06:51:10;17.40;99.90
51867;DHT22;52862;52.504;13.480;2022-07-23T06:53:37;17.30;99.90
51867;DHT22;52862;52.504;13.480;2022-07-23T06:56:04;17.40;99.90
51867;DHT22;52862;52.504;13.480;2022-07-23T06:58:31;17.50;99.90
51867;DHT22;52862;52.504;13.480;2022-07-23T07:00:58;17.60;99.90
51867;DHT22;52862;52.504;13.480;2022-07-23T07:03:24;17.70;99.90
51867;DHT22;52862;52.504;13.480;2022-07-23T07:05:51;17.70;99.90
51867;DHT22;52862;52.504;13.480;2022-07-23T07:08:19;17.70;99.90
51867;DHT22;52862;52.504;13.480;2022-07-23T07:10:46;17.80;99.90
51867;DHT22;52862;52.504;13.480;2022-07-23T07:13:13;17.80;99.90
51867;DHT22;52862;52.504;13.480;2022-07-23T07:15:40;17.80;99.90
51867;DHT22;52862;52.504;13.480;2022-07-23T07:18:07;17.70;99.90
51867;DHT22;52862;52.504;13.480;2022-07-23T07:20:34;17.60;99.90
51867;DHT22;52862;52.504;13.480;2022-07-23T07:23:00;17.60;99.90
51867;DHT22;52862;52.504;13.480;2022-07-23T07:25:28;17.70;99.90
51867;DHT22;52862;52.504;13.480;2022-07-23T07:27:55;17.80;99.90
51867;DHT22;52862;52.504;13.480;2022-07-23T07:30:22;17.90;99.90
51867;DHT22;52862;52.504;13.480;2022-07-23T07:32:49;18.00;99.90
51867;DHT22;52862;52.504;13.480;2022-07-23T07:35:24;18.00;99.90
51867;DHT22;52862;52.504;13.480;2022-07-23T07:37:51;18.20;99.90
51867;DHT22;52862;52.504;13.480;2022-07-23T07:40:18;18.40;99.90
51867;DHT22;52862;52.504;13.480;2022-07-23T07:42:51;18.40;99.90
51867;DHT22;52862;52.504;13.480;2022-07-23T07:45:20;18.40;99.90
51867;DHT22;52862;52.504;13.480;2022-07-23T07:47:47;18.60;99.90
51867;DHT22;52862;52.504;13.480;2022-07-23T07:50:14;18.70;99.90
51867;DHT22;52862;52.504;13.480;2022-07-23T07:52:42;18.80;99.90
51867;DHT22;52862;52.504;13.480;2022-07-23T07:55:10;18.90;99.90
51867;DHT22;52862;52.504;13.480;2022-07-23T07:57:38;18.80;99.90
51867;DHT22;52862;52.504;13.480;2022-07-23T08:00:08;18.80;99.90
51867;DHT22;52862;52.504;13.480;2022-07-23T08:02:40;18.80;99.90
51867;DHT22;52862;52.504;13.480;2022-07-23T08:05:08;19.00;99.90
51867;DHT22;52862;52.504;13.480;2022-07-23T08:07:39;19.00;99.90
51867;DHT22;52862;52.504;13.480;2022-07-23T08:10:08;19.00;99.90
51867;DHT22;52862;52.504;13.480;2022-07-23T08:12:43;19.00;99.90
51867;DHT22;52862;52.504;13.480;2022-07-23T08:15:12;18.90;99.90
51867;DHT22;52862;52.504;13.480;2022-07-23T08:17:40;19.10;99.90
51867;DHT22;52862;52.504;13.480;2022-07-23T08:20:09;19.00;99.90
51867;DHT22;52862;52.504;13.480;2022-07-23T08:22:48;19.20;99.90
51867;DHT22;52862;52.504;13.480;2022-07-23T08:25:15;19.20;99.90
51867;DHT22;52862;52.504;13.480;2022-07-23T08:27:43;19.30;99.90
51867;DHT22;52862;52.504;13.480;2022-07-23T08:30:11;19.60;99.90
51867;DHT22;52862;52.504;13.480;2022-07-23T08:32:53;20.10;99.90
51867;DHT22;52862;52.504;13.480;2022-07-23T08:35:28;20.20;99.90
51867;DHT22;52862;52.504;13.480;2022-07-23T08:37:57;20.50;99.90
51867;DHT22;52862;52.504;13.480;2022-07-23T08:40:26;20.50;99.90
51867;DHT22;52862;52.504;13.480;2022-07-23T08:42:53;20.50;99.90
51867;DHT22;52862;52.504;13.480;2022-07-23T08:45:22;20.50;99.90
51867;DHT22;52862;52.504;13.480;2022-07-23T08:47:53;20.20;99.90
51867;DHT22;52862;52.504;13.480;2022-07-23T08:50:21;20.50;99.90
51867;DHT22;52862;52.504;13.480;2022-07-23T08:52:48;20.10;99.90
51867;DHT22;52862;52.504;13.480;2022-07-23T08:55:16;20.30;99.90
51867;DHT22;52862;52.504;13.480;2022-07-23T08:57:43;19.90;99.90
51867;DHT22;52862;52.504;13.480;2022-07-23T09:00:11;19.70;99.90
51867;DHT22;52862;52.504;13.480;2022-07-23T09:02:43;20.00;99.90
51867;DHT22;52862;52.504;13.480;2022-07-23T09:05:11;20.40;99.90
51867;DHT22;52862;52.504;13.480;2022-07-23T09:08:11;20.40;99.90
51867;DHT22;52862;52.504;13.480;2022-07-23T09:10:59;20.20;99.90
51867;DHT22;52862;52.504;13.480;2022-07-23T09:13:29;20.40;99.90
51867;DHT22;52862;52.504;13.480;2022-07-23T09:15:57;20.60;99.90
51867;DHT22;52862;52.504;13.480;2022-07-23T09:18:45;20.60;99.90
51867;DHT22;52862;52.504;13.480;2022-07-23T09:21:21;20.20;99.90
51867;DHT22;52862;52.504;13.480;2022-07-23T09:23:53;20.30;99.90
51867;DHT22;52862;52.504;13.480;2022-07-23T09:26:27;20.50;99.90
51867;DHT22;52862;52.504;13.480;2022-07-23T09:28:58;20.70;99.90
51867;DHT22;52862;52.504;13.480;2022-07-23T09:31:31;20.90;99.90
51867;DHT22;52862;52.504;13.480;2022-07-23T09:34:07;20.80;99.90
51867;DHT22;52862;52.504;13.480;2022-07-23T09:36:35;20.40;99.90
51867;DHT22;52862;52.504;13.480;2022-07-23T09:39:02;20.00;99.90
51867;DHT22;52862;52.504;13.480;2022-07-23T09:41:35;19.90;99.90
51867;DHT22;52862;52.504;13.480;2022-07-23T09:44:07;19.90;99.90
51867;DHT22;52862;52.504;13.480;2022-07-23T09:46:34;20.10;99.90
51867;DHT22;52862;52.504;13.480;2022-07-23T09:49:12;20.30;99.90
51867;DHT22;52862;52.504;13.480;2022-07-23T09:51:45;20.60;99.90
51867;DHT22;52862;52.504;13.480;2022-07-23T09:54:21;20.90;99.90
51867;DHT22;52862;52.504;13.480;2022-07-23T09:56:49;20.90;99.90
51867;DHT22;52862;52.504;13.480;2022-07-23T09:59:17;21.10;99.90
51867;DHT22;52862;52.504;13.480;2022-07-23T10:01:45;20.90;99.90
51867;DHT22;52862;52.504;13.480;2022-07-23T10:04:12;21.10;99.90
51867;DHT22;52862;52.504;13.480;2022-07-23T10:06:40;21.60;99.90
51867;DHT22;52862;52.504;13.480;2022-07-23T10:09:09;21.80;99.90
51867;DHT22;52862;52.504;13.480;2022-07-23T10:11:38;22.50;99.90
51867;DHT22;52862;52.504;13.480;2022-07-23T10:14:05;22.70;99.90
51867;DHT22;52862;52.504;13.480;2022-07-23T10:16:32;22.40;99.90
51867;DHT22;52862;52.504;13.480;2022-07-23T10:19:00;22.10;99.90
51867;DHT22;52862;52.504;13.480;2022-07-23T10:21:39;21.90;99.90
51867;DHT22;52862;52.504;13.480;2022-07-23T10:24:16;22.00;99.90
51867;DHT22;52862;52.504;13.480;2022-07-23T10:26:54;21.80;99.90
51867;DHT22;52862;52.504;13.480;2022-07-23T10:29:34;21.60;99.90
51867;DHT22;52862;52.504;13.480;2022-07-23T10:32:08;21.90;99.90
51867;DHT22;52862;52.504;13.480;2022-07-23T10:34:46;21.80;99.90
51867;DHT22;52862;52.504;13.480;2022-07-23T10:37:22;22.20;99.90
51867;DHT22;52862;52.504;13.480;2022-07-23T10:40:08;22.40;99.90
51867;DHT22;52862;52.504;13.480;2022-07-23T10:42:36;22.30;99.90
51867;DHT22;52862;52.504;13.480;2022-07-23T10:45:22;22.10;99.90
51867;DHT22;52862;52.504;13.480;2022-07-23T10:47:50;22.10;99.90
51867;DHT22;52862;52.504;13.480;2022-07-23T10:50:23;22.20;99.90
51867;DHT22;52862;52.504;13.480;2022-07-23T10:53:11;22.50;99.90
51867;DHT22;52862;52.504;13.480;2022-07-23T10:55:41;22.20;99.90
51867;DHT22;52862;52.504;13.480;2022-07-23T10:58:08;22.00;99.90
51867;DHT22;52862;52.504;13.480;2022-07-23T11:00:36;21.90;99.90
51867;DHT22;52862;52.504;13.480;2022-07-23T11:03:05;21.90;99.90
51867;DHT22;52862;52.504;13.480;2022-07-23T11:05:42;22.10;99.90
51867;DHT22;52862;52.504;13.480;2022-07-23T11:08:17;22.20;99.90
51867;DHT22;52862;52.504;13.480;2022-07-23T11:10:48;22.20;99.90
51867;DHT22;52862;52.504;13.480;2022-07-23T11:13:29;22.60;99.90
51867;DHT22;52862;52.504;13.480;2022-07-23T11:16:24;23.00;99.90
51867;DHT22;52862;52.504;13.480;2022-07-23T11:18:59;23.20;99.90
51867;DHT22;52862;52.504;13.480;2022-07-23T11:21:48;23.10;99.90
51867;DHT22;52862;52.504;13.480;2022-07-23T11:24:21;23.30;99.90
51867;DHT22;52862;52.504;13.480;2022-07-23T11:27:03;23.30;99.90
51867;DHT22;52862;52.504;13.480;2022-07-23T11:29:53;23.70;99.90
51867;DHT22;52862;52.504;13.480;2022-07-23T11:32:39;23.50;99.90
51867;DHT22;52862;52.504;13.480;2022-07-23T11:35:24;23.40;99.90
51867;DHT22;52862;52.504;13.480;2022-07-23T11:37:52;23.90;99.90
51867;DHT22;52862;52.504;13.480;2022-07-23T11:40:25;24.80;99.90
51867;DHT22;52862;52.504;13.480;2022-07-23T11:42:56;24.50;99.70
51867;DHT22;52862;52.504;13.480;2022-07-23T11:45:25;24.00;99.90
51867;DHT22;52862;52.504;13.480;2022-07-23T11:47:52;23.80;99.90
51867;DHT22;52862;52.504;13.480;2022-07-23T11:50:19;23.90;99.90
51867;DHT22;52862;52.504;13.480;2022-07-23T11:52:45;23.90;99.90
51867;DHT22;52862;52.504;13.480;2022-07-23T11:55:13;23.50;99.90
51867;DHT22;52862;52.504;13.480;2022-07-23T11:57:43;23.30;99.90
51867;DHT22;52862;52.504;13.480;2022-07-23T12:00:11;23.10;99.90
51867;DHT22;52862;52.504;13.480;2022-07-23T12:02:40;23.40;99.90
51867;DHT22;52862;52.504;13.480;2022-07-23T12:05:08;23.60;99.90
51867;DHT22;52862;52.504;13.480;2022-07-23T12:07:37;23.80;99.90
51867;DHT22;52862;52.504;13.480;2022-07-23T12:10:09;23.70;99.90
51867;DHT22;52862;52.504;13.480;2022-07-23T12:12:37;23.10;99.90
51867;DHT22;52862;52.504;13.480;2022-07-23T12:15:08;22.90;99.90
51867;DHT22;52862;52.504;13.480;2022-07-23T12:17:37;22.70;99.90
51867;DHT22;52862;52.504;13.480;2022-07-23T12:20:05;22.80;99.90
51867;DHT22;52862;52.504;13.480;2022-07-23T12:22:37;22.70;99.90
51867;DHT22;52862;52.504;13.480;2022-07-23T12:25:07;22.70;99.90
51867;DHT22;52862;52.504;13.480;2022-07-23T12:27:35;23.20;99.90
51867;DHT22;52862;52.504;13.480;2022-07-23T12:30:20;23.70;99.90
51867;DHT22;52862;52.504;13.480;2022-07-23T12:32:49;23.60;99.90
51867;DHT22;52862;52.504;13.480;2022-07-23T12:35:16;24.10;99.90
51867;DHT22;52862;52.504;13.480;2022-07-23T12:37:45;24.20;99.90
51867;DHT22;52862;52.504;13.480;2022-07-23T12:40:23;23.90;99.90
51867;DHT22;52862;52.504;13.480;2022-07-23T12:42:52;23.90;99.90
51867;DHT22;52862;52.504;13.480;2022-07-23T12:45:19;24.60;99.90
51867;DHT22;52862;52.504;13.480;2022-07-23T12:47:56;24.70;99.30
51867;DHT22;52862;52.504;13.480;2022-07-23T12:50:37;23.90;99.60
51867;DHT22;52862;52.504;13.480;2022-07-23T12:53:06;23.40;99.90
51867;DHT22;52862;52.504;13.480;2022-07-23T12:55:39;23.50;99.90
51867;DHT22;52862;52.504;13.480;2022-07-23T12:58:26;24.00;99.90
51867;DHT22;52862;52.504;13.480;2022-07-23T13:01:02;24.00;99.70
51867;DHT22;52862;52.504;13.480;2022-07-23T13:03:34;23.80;99.70
51867;DHT22;52862;52.504;13.480;2022-07-23T13:06:06;23.90;99.90
51867;DHT22;52862;52.504;13.480;2022-07-23T13:08:35;24.00;99.30
51867;DHT22;52862;52.504;13.480;2022-07-23T13:11:04;23.90;99.30
51867;DHT22;52862;52.504;13.480;2022-07-23T13:13:33;23.90;98.90
51867;DHT22;52862;52.504;13.480;2022-07-23T13:16:02;24.10;98.90
51867;DHT22;52862;52.504;13.480;2022-07-23T13:18:36;24.30;99.00
51867;DHT22;52862;52.504;13.480;2022-07-23T13:21:04;24.20;98.30
51867;DHT22;52862;52.504;13.480;2022-07-23T13:23:31;23.90;98.50
51867;DHT22;52862;52.504;13.480;2022-07-23T13:25:59;23.80;99.20
51867;DHT22;52862;52.504;13.480;2022-07-23T13:28:26;23.70;98.80
51867;DHT22;52862;52.504;13.480;2022-07-23T13:30:53;23.90;98.70
51867;DHT22;52862;52.504;13.480;2022-07-23T13:33:23;24.00;98.20
51867;DHT22;52862;52.504;13.480;2022-07-23T13:35:53;24.00;99.00
51867;DHT22;52862;52.504;13.480;2022-07-23T13:38:20;24.10;98.60
51867;DHT22;52862;52.504;13.480;2022-07-23T13:40:49;24.00;98.40
51867;DHT22;52862;52.504;13.480;2022-07-23T13:43:18;23.80;99.00
51867;DHT22;52862;52.504;13.480;2022-07-23T13:45:49;23.80;98.70
51867;DHT22;52862;52.504;13.480;2022-07-23T13:48:17;24.40;98.30
51867;DHT22;52862;52.504;13.480;2022-07-23T13:50:47;24.40;97.90
51867;DHT22;52862;52.504;13.480;2022-07-23T13:53:16;24.30;97.30
51867;DHT22;52862;52.504;13.480;2022-07-23T13:55:44;25.00;96.20
51867;DHT22;52862;52.504;13.480;2022-07-23T13:58:31;24.80;96.60
51867;DHT22;52862;52.504;13.480;2022-07-23T14:00:58;24.30;97.10
51867;DHT22;52862;52.504;13.480;2022-07-23T14:03:25;24.50;97.10
51867;DHT22;52862;52.504;13.480;2022-07-23T14:05:54;24.50;97.20
51867;DHT22;52862;52.504;13.480;2022-07-23T14:08:23;24.40;96.90
51867;DHT22;52862;52.504;13.480;2022-07-23T14:10:53;24.90;97.50
51867;DHT22;52862;52.504;13.480;2022-07-23T14:13:25;24.10;97.50
51867;DHT22;52862;52.504;13.480;2022-07-23T14:15:51;24.20;97.70
51867;DHT22;52862;52.504;13.480;2022-07-23T14:18:18;24.30;97.20
51867;DHT22;52862;52.504;13.480;2022-07-23T14:20:47;24.20;97.30
51867;DHT22;52862;52.504;13.480;2022-07-23T14:23:15;24.20;97.40
51867;DHT22;52862;52.504;13.480;2022-07-23T14:25:42;24.60;97.20
51867;DHT22;52862;52.504;13.480;2022-07-23T14:28:09;26.60;95.00
51867;DHT22;52862;52.504;13.480;2022-07-23T14:30:37;30.40;88.20
51867;DHT22;52862;52.504;13.480;2022-07-23T14:33:05;31.10;79.80
51867;DHT22;52862;52.504;13.480;2022-07-23T14:35:32;30.30;81.10
51867;DHT22;52862;52.504;13.480;2022-07-23T14:37:58;30.00;81.80
51867;DHT22;52862;52.504;13.480;2022-07-23T14:40:26;29.70;80.00
51867;DHT22;52862;52.504;13.480;2022-07-23T14:42:55;31.10;79.00
51867;DHT22;52862;52.504;13.480;2022-07-23T14:45:21;33.00;70.60
51867;DHT22;52862;52.504;13.480;2022-07-23T14:48:07;30.00;73.70
51867;DHT22;52862;52.504;13.480;2022-07-23T14:50:37;28.20;79.30
51867;DHT22;52862;52.504;13.480;2022-07-23T14:53:04;26.30;83.80
51867;DHT22;52862;52.504;13.480;2022-07-23T14:55:32;25.70;89.50
51867;DHT22;52862;52.504;13.480;2022-07-23T14:58:00;25.60;89.50
51867;DHT22;52862;52.504;13.480;2022-07-23T15:00:27;25.80;88.60
51867;DHT22;52862;52.504;13.480;2022-07-23T15:02:54;27.30;85.00
51867;DHT22;52862;52.504;13.480;2022-07-23T15:05:22;27.80;81.90
51867;DHT22;52862;52.504;13.480;2022-07-23T15:07:49;28.50;79.40
51867;DHT22;52862;52.504;13.480;2022-07-23T15:10:16;27.70;80.20
51867;DHT22;52862;52.504;13.480;2022-07-23T15:12:49;26.10;84.30
51867;DHT22;52862;52.504;13.480;2022-07-23T15:15:16;25.20;87.80
51867;DHT22;52862;52.504;13.480;2022-07-23T15:17:44;24.80;89.60
51867;DHT22;52862;52.504;13.480;2022-07-23T15:20:11;24.70;90.10
51867;DHT22;52862;52.504;13.480;2022-07-23T15:22:43;27.40;84.40
51867;DHT22;52862;52.504;13.480;2022-07-23T15:25:11;29.80;76.50
51867;DHT22;52862;52.504;13.480;2022-07-23T15:27:39;30.30;74.50